Time;durP1;ratioP1;P1;durP2;ratioP2;P2;SDS_P1;SDS_P2;PMS_P1;PMS_P2;Temp;Humidity;BMP_temperature;BMP_pressure;BME280_temperature;BME280_humidity;BME280_pressure;Samples;Min_cycle;Max_cycle;Signal;HPM_P1;HPM_P2
2022/10/21 00:00:58;;;;;;;107.35;44.75;;;10.80;99.90;;;;;;6152963;23;20027;-79
2022/10/21 00:03:25;;;;;;;102.68;42.83;;;10.90;99.90;;;;;;6154997;23;20024;-79
2022/10/21 00:05:52;;;;;;;97.18;41.38;;;10.90;99.90;;;;;;6129660;23;20028;-80
2022/10/21 00:08:19;;;;;;;99.60;41.17;;;10.90;99.90;;;;;;6180235;23;20021;-80
2022/10/21 00:10:44;;;;;;;94.40;40.15;;;10.80;99.90;;;;;;6179834;23;20021;-79
2022/10/21 00:13:11;;;;;;;100.63;41.63;;;10.80;99.90;;;;;;6154705;23;20104;-79
2022/10/21 00:15:37;;;;;;;92.03;39.83;;;10.80;99.90;;;;;;6130523;23;20349;-80
2022/10/21 00:18:03;;;;;;;95.07;41.25;;;10.80;99.90;;;;;;6128878;23;20785;-80
2022/10/21 00:20:29;;;;;;;90.72;39.55;;;10.70;99.90;;;;;;6155133;23;20021;-80
2022/10/21 00:22:54;;;;;;;100.30;40.35;;;10.80;99.90;;;;;;6129893;23;20374;-79
2022/10/21 00:25:20;;;;;;;85.93;39.50;;;10.70;99.90;;;;;;6154363;23;20504;-79
2022/10/21 00:27:46;;;;;;;93.95;39.80;;;10.70;99.90;;;;;;6105096;23;20021;-81
2022/10/21 00:30:12;;;;;;;86.05;39.00;;;10.70;99.90;;;;;;6154729;23;20104;-79
2022/10/21 00:32:38;;;;;;;113.07;44.67;;;10.70;99.90;;;;;;6154891;23;20056;-79
2022/10/21 00:35:04;;;;;;;94.90;39.50;;;10.80;99.90;;;;;;6178782;23;20544;-79
2022/10/21 00:37:31;;;;;;;94.07;40.72;;;10.80;99.90;;;;;;6154928;23;20380;-79
2022/10/21 00:39:57;;;;;;;96.15;41.22;;;10.80;99.90;;;;;;6177644;23;20052;-80
2022/10/21 00:42:33;;;;;;;130.38;45.03;;;10.80;99.90;;;;;;6154491;23;20027;-80
2022/10/21 00:45:24;;;;;;;114.88;42.83;;;10.80;99.90;;;;;;6154200;23;20032;-79
2022/10/21 00:48:05;;;;;;;144.60;47.67;;;10.80;99.90;;;;;;6178855;23;20013;-79
2022/10/21 00:50:32;;;;;;;112.53;42.28;;;10.80;99.90;;;;;;6154627;23;20021;-79
2022/10/21 00:53:00;;;;;;;102.07;41.50;;;10.70;99.90;;;;;;6154888;23;20021;-80
2022/10/21 00:55:28;;;;;;;108.05;42.97;;;10.80;99.90;;;;;;6154764;23;20389;-80
2022/10/21 00:57:54;;;;;;;100.72;40.90;;;10.80;99.90;;;;;;6154506;23;20083;-80
2022/10/21 01:00:20;;;;;;;117.70;44.55;;;10.80;99.90;;;;;;6154741;23;20043;-79
2022/10/21 01:02:46;;;;;;;96.95;40.53;;;10.70;99.90;;;;;;6155048;23;20030;-79
2022/10/21 01:05:12;;;;;;;96.35;41.00;;;10.80;99.90;;;;;;6130026;23;20017;-80
2022/10/21 01:07:38;;;;;;;112.68;43.22;;;10.80;99.90;;;;;;6179882;23;20017;-79
2022/10/21 01:10:04;;;;;;;83.05;37.35;;;10.70;99.90;;;;;;6178997;23;20052;-79
2022/10/21 01:13:03;;;;;;;104.35;41.53;;;10.70;99.90;;;;;;6179767;23;20027;-80
2022/10/21 01:15:50;;;;;;;88.53;38.97;;;10.70;99.90;;;;;;6179780;23;20461;-80
2022/10/21 01:18:25;;;;;;;122.57;43.63;;;10.70;99.90;;;;;;6179071;23;20021;-80
2022/10/21 01:20:56;;;;;;;111.72;43.15;;;10.70;99.90;;;;;;6152790;23;20027;-81
2022/10/21 01:23:46;;;;;;;105.22;40.90;;;10.60;99.90;;;;;;6154192;23;20025;-80
2022/10/21 01:26:28;;;;;;;98.13;39.50;;;10.60;99.90;;;;;;6178828;23;20364;-80
2022/10/21 01:29:25;;;;;;;97.25;40.58;;;10.50;99.90;;;;;;6154081;23;20351;-81
2022/10/21 01:31:59;;;;;;;144.50;45.78;;;10.50;99.90;;;;;;6178898;23;20027;-79
2022/10/21 01:34:27;;;;;;;104.25;41.88;;;10.50;99.90;;;;;;6179700;23;20052;-79
2022/10/21 01:36:59;;;;;;;89.85;37.85;;;10.50;99.90;;;;;;6154321;23;20413;-80
2022/10/21 01:39:33;;;;;;;106.53;41.97;;;10.50;99.90;;;;;;6154147;23;20013;-79
2022/10/21 01:42:22;;;;;;;94.78;39.95;;;10.50;99.90;;;;;;6178875;23;20518;-79
2022/10/21 01:45:09;;;;;;;101.10;41.53;;;10.40;99.90;;;;;;6179411;23;20100;-80
2022/10/21 01:47:36;;;;;;;;;;;10.40;99.90;;;;;;6179569;23;20044;-80
2022/10/21 01:50:01;;;;;;;93.63;37.92;;;10.40;99.90;;;;;;6179191;23;19974;-79
2022/10/21 01:52:28;;;;;;;100.47;41.47;;;10.50;99.90;;;;;;6178330;23;20381;-79
2022/10/21 01:55:06;;;;;;;96.88;39.53;;;10.50;99.90;;;;;;6153618;23;20021;-79
2022/10/21 01:57:36;;;;;;;93.30;40.45;;;10.60;99.90;;;;;;6179344;23;20075;-80
2022/10/21 02:00:03;;;;;;;118.43;42.65;;;10.60;99.90;;;;;;6152923;23;20017;-81
2022/10/21 02:02:32;;;;;;;95.28;39.92;;;10.70;99.90;;;;;;6153983;23;20056;-79
2022/10/21 02:05:03;;;;;;;104.15;40.53;;;10.80;99.90;;;;;;6153540;23;20373;-79
2022/10/21 02:07:29;;;;;;;100.45;40.92;;;10.80;99.90;;;;;;6179174;23;20021;-79
2022/10/21 02:09:54;;;;;;;113.97;43.22;;;11.00;99.90;;;;;;6129419;23;20048;-79
2022/10/21 02:12:22;;;;;;;97.03;42.97;;;11.00;99.90;;;;;;6128757;23;20021;-80
2022/10/21 02:14:50;;;;;;;127.70;46.03;;;11.10;99.90;;;;;;6152339;23;20067;-80
2022/10/21 02:17:18;;;;;;;129.70;46.22;;;11.20;99.90;;;;;;6178140;23;20064;-80
2022/10/21 02:19:45;;;;;;;96.30;40.47;;;11.20;99.90;;;;;;6153852;23;20437;-79
2022/10/21 02:22:14;;;;;;;107.07;43.90;;;11.30;99.90;;;;;;6153265;23;20017;-80
2022/10/21 02:24:50;;;;;;;132.80;47.75;;;11.40;99.90;;;;;;6178946;23;20344;-79
2022/10/21 02:27:17;;;;;;;93.50;40.50;;;11.40;99.90;;;;;;6152821;23;20104;-80
2022/10/21 02:29:44;;;;;;;102.57;41.92;;;11.40;99.90;;;;;;6179035;23;20083;-80
2022/10/21 02:32:43;;;;;;;111.03;42.22;;;11.40;99.90;;;;;;6153915;23;20441;-79
2022/10/21 02:35:31;;;;;;;90.82;38.63;;;11.50;99.90;;;;;;6153441;23;20017;-80
2022/10/21 02:38:15;;;;;;;91.38;37.90;;;11.50;99.90;;;;;;6155188;23;20035;-80
2022/10/21 02:40:53;;;;;;;97.78;41.05;;;11.50;99.90;;;;;;6155846;23;20025;-83
2022/10/21 02:43:26;;;;;;;127.57;42.88;;;11.50;99.90;;;;;;6156484;23;20025;-83
2022/10/21 02:45:57;;;;;;;107.32;39.90;;;11.60;99.90;;;;;;6155934;23;20021;-85
2022/10/21 02:48:23;;;;;;;169.10;47.35;;;11.60;99.90;;;;;;6179766;23;20116;-86
2022/10/21 02:50:50;;;;;;;134.93;44.97;;;11.60;99.90;;;;;;6132360;23;20032;-87
2022/10/21 02:53:25;;;;;;;170.52;49.83;;;11.70;99.90;;;;;;6181676;23;20021;-85
2022/10/21 02:55:56;;;;;;;162.73;46.53;;;11.70;99.90;;;;;;6156352;23;20017;-84
2022/10/21 02:58:27;;;;;;;142.15;46.92;;;11.80;99.90;;;;;;6155812;23;20050;-83
2022/10/21 03:01:15;;;;;;;166.10;49.47;;;11.80;99.90;;;;;;6181217;23;20516;-83
2022/10/21 03:03:48;;;;;;;249.82;53.28;;;11.80;99.90;;;;;;6181150;23;20020;-84
2022/10/21 03:06:16;;;;;;;152.27;47.08;;;11.80;99.90;;;;;;6156077;23;20025;-83
2022/10/21 03:09:04;;;;;;;185.98;51.20;;;11.80;99.90;;;;;;6156315;23;20325;-83
2022/10/21 03:11:32;;;;;;;209.82;51.80;;;11.90;99.90;;;;;;6180752;23;20097;-83
2022/10/21 03:14:21;;;;;;;187.40;49.85;;;11.90;99.90;;;;;;6155900;23;20056;-83
2022/10/21 03:16:49;;;;;;;206.98;51.20;;;11.90;99.90;;;;;;6155630;23;20036;-84
2022/10/21 03:19:22;;;;;;;183.73;50.75;;;11.90;99.90;;;;;;6155483;23;20020;-84
2022/10/21 03:22:01;;;;;;;;;;;;;;;;;;;;;
2022/10/21 03:24:43;;;;;;;180.73;50.35;;;11.90;99.90;;;;;;6179692;23;20088;-84
2022/10/21 03:27:17;;;;;;;220.68;52.90;;;11.90;99.90;;;;;;6155594;23;20024;-83
2022/10/21 03:29:54;;;;;;;192.13;49.22;;;11.90;99.90;;;;;;6155089;23;20052;-82
2022/10/21 03:32:26;;;;;;;133.73;44.88;;;11.90;99.90;;;;;;6110191;23;20021;-83
2022/10/21 03:34:54;;;;;;;161.02;45.65;;;11.90;99.90;;;;;;6155406;23;20025;-83
2022/10/21 03:37:22;;;;;;;164.63;46.05;;;12.00;99.90;;;;;;6155625;23;20112;-84
2022/10/21 03:42:44;;;;;;;126.95;43.38;;;12.00;99.90;;;;;;6180492;23;20025;-84
2022/10/21 03:45:13;;;;;;;151.20;44.25;;;12.00;99.90;;;;;;6155433;23;20021;-85
2022/10/21 03:48:04;;;;;;;207.25;49.67;;;12.00;99.90;;;;;;6155172;23;20025;-84
2022/10/21 03:50:32;;;;;;;231.98;51.20;;;12.00;99.90;;;;;;6155709;23;20013;-84
2022/10/21 03:53:03;;;;;;;182.45;48.20;;;11.90;99.90;;;;;;6156023;23;20028;-84
2022/10/21 03:55:39;;;;;;;213.63;49.95;;;11.70;99.90;;;;;;6155412;23;20039;-84
2022/10/21 03:58:05;;;;;;;109.55;39.63;;;11.70;99.90;;;;;;6155606;23;20028;-83
2022/10/21 04:00:54;;;;;;;135.15;41.88;;;11.60;99.90;;;;;;6179935;23;20017;-83
2022/10/21 04:03:26;;;;;;;166.07;44.53;;;11.50;99.90;;;;;;6155056;23;20017;-82
2022/10/21 04:05:54;;;;;;;160.48;43.42;;;11.50;99.90;;;;;;6155697;23;20025;-82
2022/10/21 04:08:24;;;;;;;169.98;44.45;;;11.40;99.90;;;;;;6179996;23;20448;-82
2022/10/21 04:10:55;;;;;;;127.57;43.00;;;11.50;99.90;;;;;;6180429;23;20052;-82
2022/10/21 04:13:24;;;;;;;132.57;43.15;;;11.60;99.90;;;;;;6155212;23;20521;-83
2022/10/21 04:15:51;;;;;;;212.73;49.08;;;11.60;99.90;;;;;;6179522;23;20100;-83
2022/10/21 04:18:19;;;;;;;278.20;55.53;;;11.60;99.90;;;;;;6178491;23;20024;-83
2022/10/21 04:20:45;;;;;;;282.63;55.67;;;11.70;99.90;;;;;;6179237;23;20089;-83
2022/10/21 04:23:18;;;;;;;258.52;54.47;;;11.80;99.90;;;;;;6155489;23;20021;-83
2022/10/21 04:25:44;;;;;;;434.85;66.57;;;11.80;99.90;;;;;;6153703;23;20036;-82
2022/10/21 04:28:15;;;;;;;245.48;54.80;;;11.90;99.90;;;;;;6154057;23;20020;-84
2022/10/21 04:30:43;;;;;;;332.58;58.80;;;11.80;99.90;;;;;;6179457;23;20060;-83
2022/10/21 04:33:09;;;;;;;293.15;56.97;;;11.80;99.90;;;;;;6154896;23;20107;-81
2022/10/21 04:35:39;;;;;;;378.58;61.47;;;11.90;99.90;;;;;;6154759;23;20076;-81
2022/10/21 04:38:05;;;;;;;314.98;58.75;;;11.90;99.90;;;;;;6179886;23;20017;-82
2022/10/21 04:40:31;;;;;;;395.33;63.05;;;11.90;99.90;;;;;;6153208;23;20107;-81
2022/10/21 04:42:56;;;;;;;494.27;69.55;;;11.90;99.90;;;;;;6155383;23;20452;-80
2022/10/21 04:45:22;;;;;;;285.63;56.00;;;12.00;99.90;;;;;;6154440;23;20025;-80
2022/10/21 04:47:47;;;;;;;383.88;61.83;;;12.00;99.90;;;;;;6179610;23;20017;-81
2022/10/21 04:50:13;;;;;;;397.45;63.60;;;11.90;99.90;;;;;;6154340;23;20503;-80
2022/10/21 04:52:39;;;;;;;488.13;68.18;;;11.90;99.90;;;;;;6154428;23;20103;-80
2022/10/21 04:55:08;;;;;;;478.80;65.15;;;12.00;99.90;;;;;;6155134;23;20017;-80
2022/10/21 04:57:33;;;;;;;456.40;66.90;;;12.00;99.90;;;;;;6130113;23;20099;-80
2022/10/21 04:59:59;;;;;;;311.10;55.22;;;11.90;99.90;;;;;;6130137;23;20013;-79
2022/10/21 05:02:25;;;;;;;388.10;61.40;;;12.00;99.90;;;;;;6179915;23;20436;-80
2022/10/21 05:04:51;;;;;;;565.58;72.80;;;12.00;99.90;;;;;;6154815;23;20020;-79
2022/10/21 05:07:16;;;;;;;438.48;65.60;;;12.00;99.90;;;;;;6179761;23;20203;-81
2022/10/21 05:09:42;;;;;;;369.45;62.08;;;12.00;99.90;;;;;;6128403;23;20047;-80
2022/10/21 05:12:07;;;;;;;266.50;52.45;;;12.00;99.90;;;;;;6178204;23;20160;-80
2022/10/21 05:14:33;;;;;;;333.45;57.22;;;12.10;99.90;;;;;;6129102;23;20032;-80
2022/10/21 05:16:59;;;;;;;459.25;62.75;;;12.10;99.90;;;;;;6179058;23;20052;-80
2022/10/21 05:19:24;;;;;;;383.15;62.55;;;12.10;99.90;;;;;;6129979;23;20035;-80
2022/10/21 05:21:50;;;;;;;512.67;69.90;;;12.00;99.90;;;;;;6154495;23;20071;-81
2022/10/21 05:24:17;;;;;;;308.27;56.53;;;12.00;99.90;;;;;;6130552;23;20107;-81
2022/10/21 05:26:43;;;;;;;280.52;54.60;;;12.00;99.90;;;;;;6179233;23;20021;-81
2022/10/21 05:29:09;;;;;;;256.63;55.40;;;12.00;99.90;;;;;;6154873;23;20028;-80
2022/10/21 05:31:35;;;;;;;330.20;60.65;;;11.90;99.90;;;;;;6153136;23;20463;-81
2022/10/21 05:34:00;;;;;;;201.27;50.65;;;12.00;99.90;;;;;;6153968;23;20028;-81
2022/10/21 05:36:26;;;;;;;219.05;51.17;;;11.90;99.90;;;;;;6153524;23;20163;-81
2022/10/21 05:38:52;;;;;;;257.80;54.92;;;11.80;99.90;;;;;;6128185;23;20017;-81
2022/10/21 05:41:18;;;;;;;238.65;53.50;;;11.80;99.90;;;;;;6153001;23;20329;-83
2022/10/21 05:43:44;;;;;;;120.85;43.10;;;11.70;99.90;;;;;;6105307;23;20681;-82
2022/10/21 05:46:10;;;;;;;142.02;45.40;;;11.70;99.90;;;;;;6154735;23;20017;-82
2022/10/21 05:48:36;;;;;;;161.57;47.28;;;11.60;99.90;;;;;;6178493;23;20463;-82
2022/10/21 05:51:02;;;;;;;141.95;44.35;;;11.50;99.90;;;;;;6154940;23;20388;-83
2022/10/21 05:53:28;;;;;;;208.23;50.00;;;11.40;99.90;;;;;;6153838;23;20021;-82
2022/10/21 05:55:58;;;;;;;155.07;45.22;;;11.40;99.90;;;;;;6154976;23;20087;-82
2022/10/21 05:58:24;;;;;;;231.75;54.78;;;11.30;99.90;;;;;;6179026;23;20391;-82
2022/10/21 06:00:54;;;;;;;164.77;47.47;;;11.10;99.90;;;;;;6154589;23;20019;-82
2022/10/21 06:03:28;;;;;;;143.40;43.63;;;11.10;99.90;;;;;;6179476;23;20463;-82
2022/10/21 06:05:55;;;;;;;140.02;43.78;;;11.10;99.90;;;;;;6154840;23;20024;-82
2022/10/21 06:08:21;;;;;;;130.13;42.33;;;11.00;99.90;;;;;;6154650;23;20017;-82
2022/10/21 06:10:46;;;;;;;137.73;42.10;;;11.00;99.90;;;;;;6154353;23;20561;-82
2022/10/21 06:13:12;;;;;;;151.48;43.45;;;11.00;99.90;;;;;;6107945;23;20079;-82
2022/10/21 06:15:38;;;;;;;160.32;44.60;;;10.90;99.90;;;;;;6106639;23;20027;-83
2022/10/21 06:18:03;;;;;;;129.70;41.30;;;10.90;99.90;;;;;;6155299;23;20082;-82
2022/10/21 06:20:29;;;;;;;127.05;42.20;;;10.80;99.90;;;;;;6106513;23;20092;-82
2022/10/21 06:22:55;;;;;;;117.97;39.90;;;11.00;99.90;;;;;;6107263;23;20021;-83
2022/10/21 06:25:20;;;;;;;147.52;44.42;;;10.80;99.90;;;;;;6156332;23;20442;-83
2022/10/21 06:27:46;;;;;;;123.28;40.55;;;10.70;99.90;;;;;;6155854;23;20052;-83
2022/10/21 06:30:12;;;;;;;126.65;40.35;;;10.70;99.90;;;;;;6156267;23;20021;-84
2022/10/21 06:32:37;;;;;;;146.25;43.22;;;10.70;99.90;;;;;;6131039;23;20029;-83
2022/10/21 06:35:03;;;;;;;128.00;42.00;;;10.60;99.90;;;;;;6156710;23;20032;-83
2022/10/21 06:37:29;;;;;;;209.18;46.53;;;10.60;99.90;;;;;;6132033;23;20025;-83
2022/10/21 06:39:55;;;;;;;154.98;44.78;;;10.60;99.90;;;;;;6180406;23;20013;-84
2022/10/21 06:42:20;;;;;;;121.03;40.08;;;10.60;99.90;;;;;;6156648;23;20021;-84
2022/10/21 06:44:46;;;;;;;139.05;41.05;;;10.60;99.90;;;;;;6155591;23;20025;-84
2022/10/21 06:47:11;;;;;;;141.95;43.13;;;10.50;99.90;;;;;;6131916;23;20025;-83
2022/10/21 06:49:37;;;;;;;157.10;44.25;;;10.50;99.90;;;;;;6180756;23;20044;-84
2022/10/21 06:52:03;;;;;;;163.45;45.33;;;10.50;99.90;;;;;;6156292;23;20025;-83
2022/10/21 06:54:29;;;;;;;194.95;47.45;;;10.60;99.90;;;;;;6156359;23;20119;-84
2022/10/21 06:56:54;;;;;;;124.47;41.13;;;10.60;99.90;;;;;;6155707;23;20852;-84
2022/10/21 06:59:23;;;;;;;130.45;41.65;;;10.50;99.90;;;;;;6131684;23;20062;-84
2022/10/21 07:01:48;;;;;;;135.82;40.92;;;10.60;99.90;;;;;;6155850;23;20017;-83
2022/10/21 07:04:14;;;;;;;127.05;40.15;;;10.60;99.90;;;;;;6131780;23;20028;-83
2022/10/21 07:06:40;;;;;;;151.98;44.38;;;10.60;99.90;;;;;;6131164;23;20021;-83
2022/10/21 07:09:06;;;;;;;285.42;54.28;;;10.60;99.90;;;;;;6156222;23;20390;-83
2022/10/21 07:11:32;;;;;;;149.98;43.65;;;10.60;99.90;;;;;;6155826;23;20021;-83
2022/10/21 07:14:00;;;;;;;213.75;47.83;;;10.60;99.90;;;;;;6106737;23;20341;-84
2022/10/21 07:16:28;;;;;;;141.18;42.90;;;10.60;99.90;;;;;;6180236;23;20329;-83
2022/10/21 07:18:54;;;;;;;117.00;40.38;;;10.70;99.90;;;;;;6154715;23;20084;-83
2022/10/21 07:21:22;;;;;;;111.63;39.25;;;10.70;99.90;;;;;;6155861;23;20024;-84
2022/10/21 07:23:50;;;;;;;133.73;42.80;;;10.80;99.90;;;;;;6179537;23;20353;-83
2022/10/21 07:26:17;;;;;;;116.85;40.03;;;10.90;99.90;;;;;;6156448;23;20092;-83
2022/10/21 07:28:46;;;;;;;104.75;39.03;;;11.00;99.90;;;;;;6155182;23;20112;-83
2022/10/21 07:31:13;;;;;;;113.35;41.90;;;11.10;99.90;;;;;;6156709;23;20378;-83
2022/10/21 07:33:39;;;;;;;157.75;46.42;;;11.20;99.90;;;;;;6155372;23;20024;-83
2022/10/21 07:36:15;;;;;;;126.22;42.95;;;11.20;99.90;;;;;;6131570;23;20029;-83
2022/10/21 07:38:45;;;;;;;112.43;39.83;;;11.30;99.90;;;;;;6154505;23;20392;-84
2022/10/21 07:41:23;;;;;;;120.32;41.83;;;11.40;99.90;;;;;;6155875;23;20028;-83
2022/10/21 07:43:49;;;;;;;110.00;40.00;;;11.40;99.90;;;;;;6155399;23;20021;-84
2022/10/21 07:46:17;;;;;;;149.13;46.92;;;11.50;99.90;;;;;;6131587;23;20040;-83
2022/10/21 07:48:42;;;;;;;118.88;42.75;;;11.60;99.90;;;;;;6179998;23;20020;-83
2022/10/21 07:51:11;;;;;;;132.40;44.10;;;11.60;99.90;;;;;;6155828;23;20346;-83
2022/10/21 07:53:38;;;;;;;142.05;44.25;;;11.70;99.90;;;;;;6155728;23;20028;-83
2022/10/21 07:56:07;;;;;;;122.78;41.28;;;11.90;99.90;;;;;;6180090;23;20080;-83
2022/10/21 07:58:34;;;;;;;185.95;48.28;;;11.90;99.90;;;;;;6155638;23;20044;-83
2022/10/21 08:01:01;;;;;;;121.88;43.70;;;12.00;99.90;;;;;;6155289;23;20013;-83
2022/10/21 08:03:27;;;;;;;120.80;43.05;;;12.10;99.90;;;;;;6131365;23;20356;-83
2022/10/21 08:05:53;;;;;;;149.27;47.55;;;12.20;99.90;;;;;;6155011;23;20017;-83
2022/10/21 08:08:22;;;;;;;177.02;50.15;;;12.40;99.90;;;;;;6131465;23;20452;-83
2022/10/21 08:10:49;;;;;;;116.90;43.60;;;12.50;99.90;;;;;;6179797;23;20154;-83
2022/10/21 08:13:15;;;;;;;102.97;41.60;;;12.60;99.90;;;;;;6131158;23;20027;-84
2022/10/21 08:15:44;;;;;;;102.30;41.83;;;12.80;99.90;;;;;;6180178;23;20471;-83
2022/10/21 08:18:10;;;;;;;99.50;40.38;;;12.90;99.90;;;;;;6179945;23;20048;-84
2022/10/21 08:20:42;;;;;;;96.97;40.83;;;13.00;99.90;;;;;;6155558;23;20336;-83
2022/10/21 08:23:19;;;;;;;112.65;43.03;;;13.20;99.90;;;;;;6179893;23;20079;-83
2022/10/21 08:25:54;;;;;;;94.93;38.28;;;13.30;99.90;;;;;;6155352;23;20358;-83
2022/10/21 08:28:21;;;;;;;85.20;38.28;;;13.40;99.90;;;;;;6180231;23;20023;-83
2022/10/21 08:30:47;;;;;;;83.32;37.50;;;13.50;99.90;;;;;;6155089;23;20032;-84
2022/10/21 08:33:13;;;;;;;89.55;39.05;;;13.60;99.90;;;;;;6130939;23;20017;-83
2022/10/21 08:35:39;;;;;;;80.10;37.05;;;13.70;99.90;;;;;;6131318;23;20023;-83
2022/10/21 08:38:06;;;;;;;98.60;38.83;;;13.70;99.90;;;;;;6130078;23;20025;-83
2022/10/21 08:40:40;;;;;;;82.13;36.58;;;13.80;99.90;;;;;;6155388;23;20564;-83
2022/10/21 08:43:28;;;;;;;79.82;35.35;;;14.00;99.90;;;;;;6154807;23;20921;-83
2022/10/21 08:45:59;;;;;;;68.97;31.48;;;14.00;99.90;;;;;;6153420;23;20028;-84
2022/10/21 08:48:32;;;;;;;72.03;34.17;;;14.10;99.90;;;;;;6180127;23;20067;-83
2022/10/21 08:50:58;;;;;;;74.63;33.13;;;14.20;99.90;;;;;;6154889;23;20079;-83
2022/10/21 08:53:38;;;;;;;73.78;35.50;;;14.20;99.90;;;;;;6130856;23;20410;-84
2022/10/21 08:56:14;;;;;;;68.88;32.88;;;14.30;99.90;;;;;;6179664;23;20028;-84
2022/10/21 08:58:40;;;;;;;53.88;29.80;;;14.50;99.90;;;;;;6180006;23;20017;-84
2022/10/21 09:01:31;;;;;;;69.28;33.33;;;14.50;99.90;;;;;;6179337;23;20056;-83
2022/10/21 09:04:11;;;;;;;55.75;29.13;;;14.60;99.90;;;;;;6179697;23;20021;-85
2022/10/21 09:06:54;;;;;;;53.55;28.25;;;14.70;99.90;;;;;;6179972;23;20056;-84
2022/10/21 09:09:40;;;;;;;46.80;26.05;;;14.60;99.90;;;;;;6155078;23;20408;-84
2022/10/21 09:12:18;;;;;;;57.15;31.92;;;14.60;99.90;;;;;;6179441;23;20013;-83
2022/10/21 09:15:17;;;;;;;63.85;30.00;;;14.60;99.90;;;;;;6180071;23;20071;-84
2022/10/21 09:18:06;;;;;;;54.30;29.27;;;14.50;99.90;;;;;;6179058;23;20070;-85
2022/10/21 09:20:51;;;;;;;63.30;31.55;;;14.50;99.90;;;;;;6154650;23;20025;-83
2022/10/21 09:23:19;;;;;;;57.42;29.20;;;14.50;99.90;;;;;;6154696;23;20167;-84
2022/10/21 09:26:06;;;;;;;58.40;28.05;;;14.50;99.90;;;;;;6155105;23;20025;-83
2022/10/21 09:28:33;;;;;;;60.13;29.58;;;14.60;99.90;;;;;;6179627;23;20028;-84
2022/10/21 09:31:03;;;;;;;45.58;25.90;;;14.60;99.90;;;;;;6179227;23;20013;-84
2022/10/21 09:33:36;;;;;;;81.18;34.15;;;14.70;99.90;;;;;;6154000;23;20381;-84
2022/10/21 09:36:11;;;;;;;53.63;28.30;;;14.90;99.90;;;;;;6178925;23;20108;-84
2022/10/21 09:39:07;;;;;;;50.83;26.73;;;15.00;99.90;;;;;;6154841;23;20017;-83
2022/10/21 09:41:41;;;;;;;45.58;24.88;;;15.10;99.90;;;;;;6179466;23;20017;-83
2022/10/21 09:44:16;;;;;;;40.40;24.13;;;15.20;99.90;;;;;;6154161;23;20103;-83
2022/10/21 09:46:44;;;;;;;40.80;24.98;;;15.30;99.90;;;;;;6154564;23;20028;-84
2022/10/21 09:49:30;;;;;;;40.80;24.13;;;15.40;99.90;;;;;;6178910;23;20079;-84
2022/10/21 09:51:59;;;;;;;33.05;21.67;;;15.50;99.90;;;;;;6179529;23;20079;-84
2022/10/21 09:54:29;;;;;;;36.58;21.52;;;15.60;99.90;;;;;;6154799;23;20017;-83
2022/10/21 09:57:01;;;;;;;32.38;19.85;;;15.70;99.90;;;;;;6154750;23;20017;-83
2022/10/21 09:59:30;;;;;;;33.78;20.33;;;15.70;99.90;;;;;;6154606;23;20052;-83
2022/10/21 10:01:56;;;;;;;29.45;19.17;;;15.70;99.90;;;;;;6155299;23;20048;-83
2022/10/21 10:04:25;;;;;;;29.55;19.58;;;15.80;99.90;;;;;;6154349;23;20021;-83
2022/10/21 10:06:50;;;;;;;28.13;19.02;;;15.90;99.90;;;;;;6179460;23;20054;-83
2022/10/21 10:09:29;;;;;;;34.22;18.08;;;16.00;99.90;;;;;;6153954;23;20056;-83
2022/10/21 10:12:04;;;;;;;29.02;18.95;;;16.00;99.90;;;;;;6154810;23;20017;-83
2022/10/21 10:14:39;;;;;;;29.10;17.48;;;16.00;99.90;;;;;;6154481;23;20063;-83
2022/10/21 10:17:16;;;;;;;28.33;18.13;;;16.00;99.90;;;;;;6178459;23;20028;-83
2022/10/21 10:19:42;;;;;;;28.60;17.38;;;16.00;99.90;;;;;;6179218;23;20017;-82
2022/10/21 10:22:17;;;;;;;32.85;19.17;;;16.10;99.90;;;;;;6154120;23;20024;-83
2022/10/21 10:24:43;;;;;;;24.63;17.33;;;16.00;99.90;;;;;;6129857;23;20024;-84
2022/10/21 10:27:19;;;;;;;28.48;16.90;;;16.00;99.90;;;;;;6178980;23;20021;-83
2022/10/21 10:29:54;;;;;;;23.90;14.88;;;16.10;99.90;;;;;;6154714;23;20024;-83
2022/10/21 10:32:30;;;;;;;20.42;14.90;;;16.20;99.90;;;;;;6153881;23;20056;-83
2022/10/21 10:35:22;;;;;;;26.13;17.25;;;16.20;99.90;;;;;;6179100;23;20380;-83
2022/10/21 10:37:49;;;;;;;27.83;15.52;;;16.30;99.90;;;;;;6154597;23;20025;-83
2022/10/21 10:40:27;;;;;;;26.50;16.40;;;16.30;99.90;;;;;;6178794;23;20032;-83
2022/10/21 10:43:02;;;;;;;25.00;14.68;;;16.30;99.90;;;;;;6154455;23;20021;-84
2022/10/21 10:45:30;;;;;;;24.35;15.70;;;16.40;99.90;;;;;;6154866;23;20025;-84
2022/10/21 10:48:04;;;;;;;30.70;15.88;;;16.40;99.90;;;;;;6154415;23;20781;-84
2022/10/21 10:50:52;;;;;;;19.65;13.20;;;16.50;99.90;;;;;;6154688;23;20020;-83
2022/10/21 10:53:26;;;;;;;23.35;13.85;;;16.50;99.90;;;;;;6154092;23;20025;-83
2022/10/21 10:56:03;;;;;;;25.70;14.90;;;16.50;99.90;;;;;;6154626;23;20471;-83
2022/10/21 10:58:34;;;;;;;24.63;15.82;;;16.70;99.90;;;;;;6154989;23;20021;-83
2022/10/21 11:01:04;;;;;;;22.88;14.82;;;16.60;99.90;;;;;;6156142;23;20028;-83
2022/10/21 11:03:39;;;;;;;23.63;14.38;;;16.60;99.90;;;;;;6180794;23;20024;-83
2022/10/21 11:06:12;;;;;;;22.77;13.95;;;16.60;99.90;;;;;;6181017;23;20321;-83
2022/10/21 11:08:42;;;;;;;25.13;15.85;;;16.70;99.90;;;;;;6156446;23;20028;-83
2022/10/21 11:11:24;;;;;;;24.55;14.30;;;16.80;99.90;;;;;;6180422;23;20021;-84
2022/10/21 11:13:51;;;;;;;18.63;13.52;;;16.80;99.90;;;;;;6181012;23;20076;-83
2022/10/21 11:16:30;;;;;;;24.65;12.48;;;16.90;99.90;;;;;;6180453;23;20021;-84
2022/10/21 11:19:17;;;;;;;21.17;13.48;;;16.80;99.90;;;;;;6155942;23;20017;-83
2022/10/21 11:21:52;;;;;;;22.77;12.48;;;16.90;99.90;;;;;;6155976;23;20028;-83
2022/10/21 11:24:38;;;;;;;18.67;12.30;;;16.90;99.90;;;;;;6155347;23;20703;-83
2022/10/21 11:27:19;;;;;;;19.80;12.38;;;16.90;99.90;;;;;;6180957;23;20028;-83
2022/10/21 11:30:03;;;;;;;18.83;12.23;;;16.90;99.90;;;;;;6180958;23;20021;-84
2022/10/21 11:32:47;;;;;;;16.60;11.25;;;17.00;99.90;;;;;;6155542;23;20013;-83
2022/10/21 11:35:40;;;;;;;19.50;11.57;;;16.90;99.90;;;;;;6155240;23;20448;-83
2022/10/21 11:38:28;;;;;;;19.60;13.32;;;16.90;99.90;;;;;;6156008;23;20017;-83
2022/10/21 11:41:22;;;;;;;19.10;11.88;;;16.80;99.90;;;;;;6155929;23;20091;-83
2022/10/21 11:44:15;;;;;;;17.77;12.40;;;16.80;99.90;;;;;;6156010;23;20031;-83
2022/10/21 11:47:02;;;;;;;16.55;10.93;;;16.80;99.90;;;;;;6157223;23;20023;-83
2022/10/21 11:49:48;;;;;;;19.80;11.63;;;16.80;99.90;;;;;;6155120;23;20021;-83
2022/10/21 11:52:31;;;;;;;23.07;12.10;;;16.90;99.90;;;;;;6155010;23;20033;-83
2022/10/21 11:55:09;;;;;;;22.15;13.00;;;16.80;99.90;;;;;;6180637;23;20028;-83
2022/10/21 11:57:42;;;;;;;18.85;12.13;;;16.80;99.90;;;;;;6155221;23;20053;-83
2022/10/21 12:00:12;;;;;;;20.88;11.95;;;16.80;99.90;;;;;;6180372;23;20024;-83
2022/10/21 12:02:49;;;;;;;23.05;12.35;;;16.60;99.90;;;;;;6154896;23;20099;-83
2022/10/21 12:05:32;;;;;;;23.27;13.25;;;16.70;99.90;;;;;;6155403;23;20017;-84
2022/10/21 12:08:10;;;;;;;22.13;12.82;;;16.70;99.90;;;;;;6180381;23;20040;-83
2022/10/21 12:11:05;;;;;;;21.63;12.70;;;16.70;99.90;;;;;;6179699;23;20021;-83
2022/10/21 12:13:51;;;;;;;20.88;12.73;;;16.90;99.90;;;;;;6154867;23;20047;-83
2022/10/21 12:16:23;;;;;;;22.42;12.45;;;16.90;99.90;;;;;;6154754;23;20075;-84
2022/10/21 12:18:55;;;;;;;22.98;12.95;;;16.80;99.90;;;;;;6179704;23;20024;-83
2022/10/21 12:21:24;;;;;;;22.60;13.57;;;16.90;99.90;;;;;;6179850;23;20017;-83
2022/10/21 12:24:20;;;;;;;19.88;11.60;;;16.90;99.90;;;;;;6155486;23;20404;-83
2022/10/21 12:26:53;;;;;;;24.92;12.30;;;16.80;99.90;;;;;;6103238;23;20032;-83
2022/10/21 12:29:51;;;;;;;21.40;11.77;;;16.80;99.90;;;;;;6154856;23;20100;-84
2022/10/21 12:32:45;;;;;;;15.35;10.63;;;16.80;99.90;;;;;;6154882;23;20352;-84
2022/10/21 12:35:13;;;;;;;18.38;10.38;;;16.80;99.90;;;;;;6155180;23;20448;-83
2022/10/21 12:38:05;;;;;;;16.23;11.07;;;16.80;99.90;;;;;;6130708;23;20543;-83
2022/10/21 12:40:50;;;;;;;15.57;10.30;;;16.80;99.90;;;;;;6179384;23;20096;-83
2022/10/21 12:43:26;;;;;;;16.55;9.70;;;16.90;99.90;;;;;;6155129;23;20449;-83
2022/10/21 12:46:07;;;;;;;18.27;10.27;;;16.90;99.90;;;;;;6155459;23;20020;-83
2022/10/21 12:48:44;;;;;;;21.58;14.32;;;16.90;99.90;;;;;;6179359;23;20016;-83
2022/10/21 12:51:24;;;;;;;21.23;13.18;;;16.90;99.90;;;;;;6155416;23;20078;-83